Home  |  Fixtures  |  Results  |  Rankings  |  Athletes  |  Clubs  |  Newsletters
RWR  |  200 Club  |  About us  |  Information  |  Gallery  |  Contacts  |  Login  |  Facebook - UK Race Walking Group
    
UK National Rankings

2011
2018  2017  2016  2015  2014  2013  2012  2011  2010  2009  2008  2007  2006  2005       Mens:  50km (88)

POSITIONS 1 TO 25   >>26 to 50>>


 RANK   Athlete   Time   Points   Speed   Date 

 1     Dominic King   SM     04:14:55     1062  11.769 km/h   26/03/2011  
 2     Daniel King   SM     04:32:38     983  11.004 km/h   26/06/2011  
 3     Scott Davis   M35     04:45:22     928  10.513 km/h   2/10/2011  
 4     Michael George   M45     05:03:49     851  9.874 km/h   17/04/2011  
 5     Richard Gerrard   M35     05:05:15     845  9.828 km/h   17/04/2011  
 6     Terry Moffatt       05:16:53     798  9.467 km/h   17/04/2011  
 7     Richard Spenceley   M45     05:29:19     750  0.000 km/h   25/09/2011  
 8     Stephen Harvey       05:33:22     734  8.999 km/h   17/04/2011  
 9     Carl Senogles       05:37:22     719  8.892 km/h   17/04/2011  
 10     Adrian Edwards   M45     05:37:27     719  8.890 km/h   2/10/2011  
 11     Andy Green   M55     05:38:23     715  8.866 km/h   17/04/2011  
 12     Jonathan Wild       05:42:45     699  8.753 km/h   17/04/2011  
 13     Simon Starkey       05:43:49     695  8.726 km/h   17/04/2011  
 14     Dave Mackey   M40     05:43:49     695  8.726 km/h   17/04/2011  
 15     David (Lon) Chambers       05:49:12     675  8.591 km/h   17/04/2011  
 16     Tony Okell       05:50:09     672  8.568 km/h   17/04/2011  
 17     Martin Fisher   M45     05:50:52     669  8.550 km/h   2/10/2011  
 18     Brian Wade       05:51:56     665  8.524 km/h   17/04/2011  
 19     Ed Shillabeer   M70     05:53:21     660  8.490 km/h   2/10/2011  
 20     Ian Kelly       05:54:50     655  8.455 km/h   17/04/2011  
 21     Bob Dobson   M65     05:55:59     651  8.427 km/h   2/10/2011  
 22     James Moore       05:56:19     649  8.419 km/h   17/04/2011  
 23     Tony Dugdale       06:00:02     636  8.333 km/h   17/04/2011  
 24     Gordon Corran   M55     06:00:02     636  8.333 km/h   17/04/2011  
 25     Brian Kelly       06:04:13     622  8.237 km/h   17/04/2011  

POSITIONS 1 TO 25   >>26 to 50>>

(c)    RACE WALKING ASSOCIATION 1907 - 2016    Sitemap